Time;durP1;ratioP1;P1;durP2;ratioP2;P2;SDS_P1;SDS_P2;PMS_P1;PMS_P2;Temp;Humidity;BMP_temperature;BMP_pressure;BME280_temperature;BME280_humidity;BME280_pressure;Samples;Min_cycle;Max_cycle;Signal;HPM_P1;HPM_P2
2021/07/24 00:01:13;;;;;;;11.83;7.67;;;;;;;19.78;100.00;101241.16;5005248;28;20655;-75
2021/07/24 00:03:39;;;;;;;14.33;8.13;;;;;;;19.74;100.00;101242.47;5011003;28;20425;-76
2021/07/24 00:06:05;;;;;;;14.80;7.57;;;;;;;19.61;100.00;101238.31;5011622;28;20161;-77
2021/07/24 00:08:30;;;;;;;17.63;8.30;;;;;;;19.57;100.00;101242.28;5009762;28;20417;-75
2021/07/24 00:10:56;;;;;;;16.27;8.90;;;;;;;19.54;100.00;101245.19;5011320;28;20560;-75
2021/07/24 00:13:21;;;;;;;13.03;8.60;;;;;;;19.60;100.00;101230.47;5011606;28;20692;-75
2021/07/24 00:15:47;;;;;;;20.67;7.50;;;;;;;19.58;100.00;101227.94;5007918;28;20189;-76
2021/07/24 00:18:12;;;;;;;25.80;7.70;;;;;;;19.57;100.00;101225.41;5011825;28;20742;-75
2021/07/24 00:20:38;;;;;;;17.20;8.80;;;;;;;19.58;100.00;101235.13;5011296;28;20599;-74
2021/07/24 00:23:06;;;;;;;14.90;7.53;;;;;;;19.60;100.00;101225.13;5011405;28;20582;-77
2021/07/24 00:25:35;;;;;;;11.57;7.40;;;;;;;19.64;100.00;101226.50;5010919;28;20167;-77
2021/07/24 00:28:00;;;;;;;18.37;8.20;;;;;;;19.66;100.00;101222.72;5010469;28;20421;-76
2021/07/24 00:30:26;;;;;;;10.60;7.60;;;;;;;19.68;100.00;101223.38;5008009;28;20444;-77
2021/07/24 00:32:51;;;;;;;16.33;7.57;;;;;;;19.65;100.00;101222.88;5010024;28;20171;-75
2021/07/24 00:35:17;;;;;;;13.40;7.40;;;;;;;19.68;100.00;101222.56;5009998;28;20210;-75
2021/07/24 00:37:42;;;;;;;14.27;8.13;;;;;;;19.74;100.00;101229.97;5010759;28;20175;-73
2021/07/24 00:40:13;;;;;;;11.73;7.33;;;;;;;19.73;100.00;101216.78;5010711;28;20167;-74
2021/07/24 00:42:39;;;;;;;12.30;8.30;;;;;;;19.71;100.00;101211.56;5007355;28;20171;-74
2021/07/24 00:45:07;;;;;;;14.70;8.90;;;;;;;19.75;100.00;101217.47;5007793;28;20923;-74
2021/07/24 00:47:38;;;;;;;13.80;10.57;;;;;;;19.71;100.00;101214.25;5011316;28;20398;-75
2021/07/24 00:50:04;;;;;;;20.87;12.40;;;;;;;19.65;100.00;101209.53;5010535;28;20410;-74
2021/07/24 00:52:30;;;;;;;17.50;11.60;;;;;;;19.56;100.00;101218.38;5009172;28;20790;-75
2021/07/24 00:54:56;;;;;;;24.27;10.43;;;;;;;19.48;100.00;101207.63;5011151;28;20406;-74
2021/07/24 00:57:22;;;;;;;24.97;10.80;;;;;;;19.46;100.00;101215.75;5009569;28;20993;-75
2021/07/24 00:59:47;;;;;;;10.97;8.33;;;;;;;19.50;100.00;101213.66;5007237;28;20663;-75
2021/07/24 01:02:12;;;;;;;15.10;8.70;;;;;;;19.40;100.00;101209.19;5009622;28;20202;-73
2021/07/24 01:04:38;;;;;;;17.40;10.57;;;;;;;19.39;100.00;101207.53;5011148;28;20163;-74
2021/07/24 01:07:06;;;;;;;19.27;10.53;;;;;;;19.41;100.00;101215.34;5010650;28;20202;-74
2021/07/24 01:09:34;;;;;;;17.40;9.93;;;;;;;19.36;100.00;101210.50;5004493;28;20424;-73
2021/07/24 01:12:04;;;;;;;17.30;9.67;;;;;;;19.31;100.00;101218.06;5010880;28;20445;-74
2021/07/24 01:14:32;;;;;;;16.43;10.37;;;;;;;19.27;100.00;101216.72;5008351;28;20406;-75
2021/07/24 01:16:59;;;;;;;15.70;10.07;;;;;;;19.18;100.00;101212.25;5010976;28;20940;-75
2021/07/24 01:19:25;;;;;;;12.10;9.43;;;;;;;19.18;100.00;101219.41;5010582;28;20919;-73
2021/07/24 01:21:52;;;;;;;19.07;9.47;;;;;;;19.26;100.00;101216.84;5008608;28;20515;-76
2021/07/24 01:24:17;;;;;;;12.10;8.30;;;;;;;19.23;100.00;101214.47;5009271;28;20178;-75
2021/07/24 01:26:44;;;;;;;11.53;9.37;;;;;;;19.10;100.00;101207.66;5010330;28;21048;-76
2021/07/24 01:29:17;;;;;;;14.10;7.80;;;;;;;19.08;100.00;101198.13;5002858;28;20554;-75
2021/07/24 01:31:43;;;;;;;13.73;8.67;;;;;;;19.09;100.00;101194.47;5011206;28;20428;-76
2021/07/24 01:34:09;;;;;;;13.80;8.60;;;;;;;19.12;100.00;101192.38;5008415;28;20846;-75
2021/07/24 01:36:35;;;;;;;12.57;8.90;;;;;;;19.20;100.00;101183.66;5007778;28;20500;-77
2021/07/24 01:39:01;;;;;;;12.50;7.70;;;;;;;19.17;100.00;101191.91;5000925;28;20448;-77
2021/07/24 01:41:26;;;;;;;27.57;10.83;;;;;;;19.18;100.00;101188.25;5008329;28;20198;-76
2021/07/24 01:43:51;;;;;;;13.37;9.67;;;;;;;19.16;100.00;101194.72;5000313;28;20182;-77
2021/07/24 01:46:18;;;;;;;16.37;7.50;;;;;;;19.13;100.00;101188.72;5005632;28;20515;-76
2021/07/24 01:48:52;;;;;;;20.00;8.90;;;;;;;19.09;100.00;101186.50;5004078;28;20162;-77
2021/07/24 01:54:27;;;;;;;14.00;8.43;;;;;;;19.07;100.00;101189.31;5002289;28;20994;-76
2021/07/24 01:56:55;;;;;;;21.33;9.50;;;;;;;19.07;100.00;101194.63;5009261;28;20413;-80
2021/07/24 01:59:24;;;;;;;11.97;8.40;;;;;;;19.06;100.00;101192.97;5010310;28;20795;-75
2021/07/24 02:01:51;;;;;;;21.27;9.87;;;;;;;19.07;100.00;101191.97;5010272;28;20459;-74
2021/07/24 02:04:20;;;;;;;12.97;8.20;;;;;;;19.04;100.00;101197.59;5008305;28;20409;-76
2021/07/24 02:06:45;;;;;;;14.23;8.10;;;;;;;18.94;100.00;101194.13;5039425;28;20409;-74
2021/07/24 02:09:11;;;;;;;11.20;8.67;;;;;;;18.98;100.00;101192.00;5004131;28;20556;-76
2021/07/24 02:11:38;;;;;;;12.73;9.40;;;;;;;18.91;100.00;101194.41;5005941;28;20173;-76
2021/07/24 02:14:05;;;;;;;12.17;9.03;;;;;;;18.90;100.00;101192.75;5010155;28;20178;-75
2021/07/24 02:16:31;;;;;;;14.43;8.70;;;;;;;18.80;100.00;101192.75;5011262;28;21301;-78
2021/07/24 02:18:57;;;;;;;14.63;8.27;;;;;;;18.89;100.00;101190.19;5010818;28;20926;-75
2021/07/24 02:21:22;;;;;;;14.20;8.33;;;;;;;18.82;100.00;101189.97;5003778;28;20456;-76
2021/07/24 02:23:48;;;;;;;14.63;8.70;;;;;;;18.85;100.00;101187.00;5004983;28;20182;-76
2021/07/24 02:26:13;;;;;;;14.33;8.00;;;;;;;18.90;100.00;101192.75;5010750;28;20170;-76
2021/07/24 02:28:39;;;;;;;13.90;8.17;;;;;;;18.87;100.00;101192.19;4990089;28;20173;-76
2021/07/24 02:31:05;;;;;;;14.80;7.30;;;;;;;18.85;100.00;101190.50;5011373;28;20167;-77
2021/07/24 02:33:31;;;;;;;10.03;7.33;;;;;;;18.84;100.00;101190.66;5011044;28;20183;-75
2021/07/24 02:35:57;;;;;;;17.97;8.87;;;;;;;18.74;100.00;101192.47;5007154;28;20214;-76
2021/07/24 02:38:23;;;;;;;10.57;7.70;;;;;;;18.68;100.00;101199.25;5004337;28;20464;-74
2021/07/24 02:40:48;;;;;;;16.77;9.77;;;;;;;18.67;100.00;101196.72;5011994;28;20226;-76
2021/07/24 02:43:14;;;;;;;15.07;9.30;;;;;;;18.65;100.00;101198.66;5010848;28;20249;-77
2021/07/24 02:45:40;;;;;;;12.10;8.03;;;;;;;18.67;100.00;101191.41;5003416;28;20625;-74
2021/07/24 02:48:05;;;;;;;15.00;9.30;;;;;;;18.65;100.00;101199.47;5010814;28;20561;-77
2021/07/24 02:50:31;;;;;;;12.17;8.80;;;;;;;18.60;100.00;101206.25;5008575;28;20175;-74
2021/07/24 02:52:56;;;;;;;15.40;9.87;;;;;;;18.52;100.00;101204.28;5010185;28;20182;-76
2021/07/24 02:55:22;;;;;;;17.93;10.87;;;;;;;18.44;100.00;101205.00;5018367;28;20248;-75
2021/07/24 02:57:47;;;;;;;17.70;9.00;;;;;;;18.48;100.00;101213.53;5009761;28;20273;-75
2021/07/24 03:00:13;;;;;;;14.17;9.77;;;;;;;18.47;100.00;101207.38;5002699;28;20257;-77
2021/07/24 03:02:39;;;;;;;19.60;10.20;;;;;;;18.48;100.00;101208.22;5010165;28;20212;-76
2021/07/24 03:05:05;;;;;;;11.50;8.37;;;;;;;18.45;100.00;101208.50;5010271;28;20206;-77
2021/07/24 03:07:30;;;;;;;14.57;8.73;;;;;;;18.46;100.00;101215.50;5005875;28;20178;-76
2021/07/24 03:09:56;;;;;;;13.07;8.47;;;;;;;18.40;100.00;101222.22;5008990;28;20425;-76
2021/07/24 03:12:21;;;;;;;14.40;9.13;;;;;;;18.36;100.00;101217.31;5008548;28;20178;-79
2021/07/24 03:14:47;;;;;;;15.90;10.83;;;;;;;18.35;100.00;101220.94;5009343;28;20618;-76
2021/07/24 03:17:12;;;;;;;13.13;9.10;;;;;;;18.32;100.00;101224.75;5007147;28;20253;-75
2021/07/24 03:19:38;;;;;;;15.50;8.70;;;;;;;18.36;100.00;101218.16;5003550;28;20241;-75
2021/07/24 03:22:04;;;;;;;14.13;9.50;;;;;;;18.34;100.00;101220.13;4986860;28;20220;-77
2021/07/24 03:24:29;;;;;;;15.07;9.47;;;;;;;18.37;100.00;101222.50;5011629;28;20625;-75
2021/07/24 03:26:55;;;;;;;12.47;8.80;;;;;;;18.35;100.00;101228.94;5014028;28;20429;-76
2021/07/24 03:29:20;;;;;;;13.63;9.20;;;;;;;18.39;100.00;101222.38;5008989;28;20166;-76
2021/07/24 03:31:46;;;;;;;13.73;8.83;;;;;;;18.43;100.00;101221.91;5003757;28;20237;-76
2021/07/24 03:34:11;;;;;;;14.87;9.77;;;;;;;18.43;100.00;101215.75;5009560;28;20674;-78
2021/07/24 03:36:37;;;;;;;15.90;8.93;;;;;;;18.47;100.00;101227.81;5013915;28;20181;-77
2021/07/24 03:39:02;;;;;;;20.10;9.23;;;;;;;18.48;100.00;101224.16;5010156;28;20188;-78
2021/07/24 03:41:28;;;;;;;16.10;10.10;;;;;;;18.55;100.00;101219.97;5012509;28;20305;-78
2021/07/24 03:43:53;;;;;;;14.03;9.13;;;;;;;18.51;100.00;101229.19;5013795;28;20174;-77
2021/07/24 03:46:21;;;;;;;15.23;9.83;;;;;;;18.55;100.00;101226.13;5012840;28;20182;-76
2021/07/24 03:48:48;;;;;;;12.30;9.47;;;;;;;18.56;100.00;101222.47;5008005;28;20190;-77
2021/07/24 03:51:16;;;;;;;13.00;9.03;;;;;;;18.59;100.00;101224.03;5002239;28;20420;-76
2021/07/24 03:53:42;;;;;;;17.13;9.47;;;;;;;18.61;100.00;101226.56;5009806;28;20503;-75
2021/07/24 03:56:34;;;;;;;16.27;9.43;;;;;;;18.70;100.00;101221.22;5011680;28;20420;-75
2021/07/24 03:59:00;;;;;;;20.67;9.80;;;;;;;18.74;100.00;101221.78;5009142;28;20190;-76
2021/07/24 04:01:27;;;;;;;12.57;8.73;;;;;;;18.74;100.00;101225.31;5010236;28;20465;-77
2021/07/24 04:03:52;;;;;;;15.90;8.40;;;;;;;18.80;100.00;101221.19;5006954;28;20170;-77
2021/07/24 04:06:22;;;;;;;14.60;8.23;;;;;;;18.88;100.00;101229.31;5013906;28;20406;-76
2021/07/24 04:08:55;;;;;;;15.20;9.40;;;;;;;18.94;100.00;101220.75;5012625;28;20178;-77
2021/07/24 04:11:21;;;;;;;13.47;8.40;;;;;;;18.93;100.00;101221.72;5005635;28;20944;-78
2021/07/24 04:13:48;;;;;;;15.37;9.00;;;;;;;18.99;100.00;101229.16;5010935;28;20456;-77
2021/07/24 04:16:14;;;;;;;18.80;8.60;;;;;;;19.14;100.00;101226.84;5013163;28;20417;-79
2021/07/24 04:18:41;;;;;;;11.03;8.20;;;;;;;19.21;100.00;101224.44;5011556;28;20417;-75
2021/07/24 04:21:06;;;;;;;14.30;9.00;;;;;;;19.25;100.00;101228.47;5013352;28;20465;-80
2021/07/24 04:23:32;;;;;;;16.17;8.57;;;;;;;19.32;100.00;101232.25;5012602;28;20432;-77
2021/07/24 04:25:57;;;;;;;12.97;8.67;;;;;;;19.44;100.00;101230.25;5013128;28;20182;-75
2021/07/24 04:28:23;;;;;;;13.53;9.00;;;;;;;19.44;100.00;101223.06;5013258;28;20954;-80
2021/07/24 04:30:50;;;;;;;15.70;10.30;;;;;;;19.48;100.00;101224.44;5012325;28;20655;-77
2021/07/24 04:33:15;;;;;;;21.10;9.93;;;;;;;19.61;100.00;101230.31;5008165;28;20519;-78
2021/07/24 04:35:48;;;;;;;14.87;8.00;;;;;;;19.72;100.00;101233.75;5010848;28;20524;-81
2021/07/24 04:38:15;;;;;;;19.37;8.40;;;;;;;19.83;100.00;101223.72;5012671;28;20170;-77
2021/07/24 04:40:41;;;;;;;12.20;8.53;;;;;;;19.87;100.00;101225.06;5012417;28;20498;-79
2021/07/24 04:43:07;;;;;;;12.17;7.30;;;;;;;20.04;100.00;101234.09;5013175;28;20413;-76
2021/07/24 04:45:33;;;;;;;12.57;7.50;;;;;;;20.08;100.00;101221.28;5012303;28;20471;-77
2021/07/24 04:47:58;;;;;;;16.67;8.60;;;;;;;20.13;100.00;101227.84;5009414;28;20423;-78
2021/07/24 04:50:24;;;;;;;10.70;7.17;;;;;;;20.24;100.00;101234.78;5004521;28;20425;-77
2021/07/24 04:52:50;;;;;;;13.97;8.07;;;;;;;20.37;100.00;101229.91;5012985;28;20205;-76
2021/07/24 04:55:16;;;;;;;12.27;7.70;;;;;;;20.40;100.00;101220.72;5010221;28;20196;-77
2021/07/24 04:57:44;;;;;;;9.63;7.30;;;;;;;20.47;100.00;101228.00;5004383;28;20425;-78
2021/07/24 05:00:12;;;;;;;16.70;7.40;;;;;;;20.57;100.00;101227.94;5012173;28;20951;-75
2021/07/24 05:02:38;;;;;;;10.00;6.60;;;;;;;20.64;100.00;101222.81;5007140;28;20474;-77
2021/07/24 05:05:04;;;;;;;13.73;7.50;;;;;;;20.69;100.00;101221.31;5011342;28;20425;-75
2021/07/24 05:07:32;;;;;;;13.63;6.40;;;;;;;20.79;100.00;101223.91;5004587;28;20430;-76
2021/07/24 05:09:58;;;;;;;9.37;6.63;;;;;;;20.92;100.00;101220.81;5002704;28;20430;-74
2021/07/24 05:12:24;;;;;;;11.33;7.50;;;;;;;21.06;100.00;101214.88;5006644;28;20418;-77
2021/07/24 05:14:49;;;;;;;12.40;6.30;;;;;;;21.23;100.00;101219.28;5010583;28;20865;-76
2021/07/24 05:17:15;;;;;;;8.60;5.93;;;;;;;21.38;100.00;101221.41;5010797;28;20190;-76
2021/07/24 05:19:45;;;;;;;10.60;6.00;;;;;;;21.42;100.00;101223.59;5012250;28;20170;-76
2021/07/24 05:22:12;;;;;;;12.20;5.80;;;;;;;21.63;100.00;101219.66;5010009;28;21019;-77
2021/07/24 05:24:38;;;;;;;16.63;7.20;;;;;;;21.73;100.00;101218.50;5029719;28;20416;-75
2021/07/24 05:27:05;;;;;;;7.73;5.47;;;;;;;21.93;100.00;101210.22;5010472;28;20418;-78
2021/07/24 05:29:31;;;;;;;10.53;5.10;;;;;;;22.03;100.00;101208.19;5011593;28;20792;-75
2021/07/24 05:31:57;;;;;;;17.10;6.33;;;;;;;22.19;100.00;101202.06;5011483;28;20757;-77
2021/07/24 05:34:23;;;;;;;10.03;4.90;;;;;;;22.33;100.00;101196.03;5009470;28;20473;-77
2021/07/24 05:36:49;;;;;;;7.60;4.20;;;;;;;22.53;100.00;101201.88;5019168;28;20172;-77
2021/07/24 05:39:14;;;;;;;13.50;5.20;;;;;;;22.67;100.00;101207.41;5010828;28;20773;-77
2021/07/24 05:41:40;;;;;;;12.03;4.40;;;;;;;22.79;100.00;101201.66;5010324;28;21033;-76
2021/07/24 05:44:06;;;;;;;12.47;4.30;;;;;;;22.87;100.00;101207.88;5005457;28;20166;-77
2021/07/24 05:46:31;;;;;;;8.63;4.57;;;;;;;22.95;100.00;101210.53;5009542;28;20170;-77
2021/07/24 05:48:57;;;;;;;7.70;3.93;;;;;;;23.08;100.00;101198.44;5010093;28;20197;-77
2021/07/24 05:51:22;;;;;;;8.73;4.40;;;;;;;23.23;100.00;101202.91;5011097;28;20236;-76
2021/07/24 05:53:48;;;;;;;8.80;4.40;;;;;;;23.41;100.00;101199.13;5005943;28;20194;-77
2021/07/24 05:56:13;;;;;;;16.60;4.97;;;;;;;23.48;100.00;101198.25;5009169;28;20201;-77
2021/07/24 05:58:39;;;;;;;9.83;4.40;;;;;;;23.63;100.00;101194.88;5011519;28;20241;-77
2021/07/24 06:01:11;;;;;;;9.63;4.40;;;;;;;23.82;100.00;101198.97;5010360;28;20194;-75
2021/07/24 06:03:37;;;;;;;9.93;3.73;;;;;;;23.97;100.00;101197.19;5000803;28;20178;-76
2021/07/24 06:06:03;;;;;;;5.20;3.30;;;;;;;24.07;100.00;101195.91;5007277;28;20421;-74
2021/07/24 06:08:28;;;;;;;10.20;3.63;;;;;;;24.17;100.00;101198.34;5006480;28;20839;-76
2021/07/24 06:11:01;;;;;;;7.33;3.37;;;;;;;24.28;100.00;101199.78;5005576;28;20576;-77
2021/07/24 06:13:30;;;;;;;13.03;3.90;;;;;;;24.43;100.00;101194.50;5003681;28;20221;-76
2021/07/24 06:15:57;;;;;;;11.00;3.40;;;;;;;24.56;100.00;101195.53;5004961;28;20475;-76
2021/07/24 06:18:23;;;;;;;7.43;3.53;;;;;;;24.59;100.00;101194.31;5003555;28;20409;-75
2021/07/24 06:20:49;;;;;;;9.70;3.30;;;;;;;24.73;100.00;101192.69;5002317;28;20440;-77
2021/07/24 06:23:16;;;;;;;4.73;2.60;;;;;;;24.77;100.00;101191.28;5007722;28;20177;-75
2021/07/24 06:25:45;;;;;;;14.40;2.83;;;;;;;24.83;100.00;101186.00;5008983;28;20413;-78
2021/07/24 06:28:11;;;;;;;6.03;2.97;;;;;;;24.95;100.00;101185.56;5006336;28;20706;-77
2021/07/24 06:30:37;;;;;;;9.30;3.07;;;;;;;25.00;100.00;101189.34;5009409;28;20768;-76
2021/07/24 06:33:03;;;;;;;7.17;2.70;;;;;;;25.04;100.00;101192.53;5003965;28;20178;-77
2021/07/24 06:35:29;;;;;;;7.37;3.00;;;;;;;25.18;100.00;101189.84;5003758;28;20462;-77
2021/07/24 06:37:55;;;;;;;15.93;4.13;;;;;;;25.22;100.00;101190.28;5004985;28;20414;-76
2021/07/24 06:40:20;;;;;;;5.80;2.93;;;;;;;25.34;100.00;101191.50;5004238;28;20174;-75
2021/07/24 06:42:46;;;;;;;5.27;2.50;;;;;;;25.39;100.00;101193.59;4999959;28;20183;-77
2021/07/24 06:45:12;;;;;;;4.20;2.43;;;;;;;25.37;100.00;101193.78;5009291;28;20300;-77
2021/07/24 06:47:38;;;;;;;6.07;3.00;;;;;;;25.38;100.00;101190.06;5009273;28;20174;-77
2021/07/24 06:50:04;;;;;;;5.83;2.60;;;;;;;25.46;100.00;101194.50;5009148;28;20224;-75
2021/07/24 06:52:29;;;;;;;6.50;2.67;;;;;;;25.57;100.00;101194.03;4998744;28;20209;-77
2021/07/24 06:54:55;;;;;;;8.23;3.13;;;;;;;25.70;100.00;101187.97;5012625;28;20408;-77
2021/07/24 06:57:20;;;;;;;8.13;2.97;;;;;;;25.73;100.00;101193.81;5013267;28;20277;-77
2021/07/24 06:59:46;;;;;;;8.73;2.40;;;;;;;25.84;100.00;101197.03;5016734;28;20178;-77
2021/07/24 07:02:11;;;;;;;5.47;2.50;;;;;;;25.88;100.00;101193.78;5005969;28;20290;-79
2021/07/24 07:04:38;;;;;;;9.97;3.13;;;;;;;25.97;100.00;101189.09;5010176;28;20170;-75
2021/07/24 07:07:05;;;;;;;6.63;2.70;;;;;;;26.03;100.00;101192.88;5011992;28;20162;-76
2021/07/24 07:09:31;;;;;;;6.47;2.50;;;;;;;26.21;100.00;101188.69;5010117;28;20781;-74
2021/07/24 07:11:57;;;;;;;8.33;2.80;;;;;;;26.24;100.00;101188.31;5010139;28;20860;-74
2021/07/24 07:14:24;;;;;;;6.30;2.57;;;;;;;26.36;96.48;101187.78;5016379;28;20193;-76
2021/07/24 07:16:49;;;;;;;5.07;2.60;;;;;;;26.38;98.61;101188.44;5013255;28;20424;-76
2021/07/24 07:19:15;;;;;;;19.50;4.23;;;;;;;26.49;98.60;101193.31;5015394;28;20784;-75
2021/07/24 07:21:40;;;;;;;12.83;3.30;;;;;;;26.64;96.90;101191.34;5013102;28;20281;-74
2021/07/24 07:24:06;;;;;;;6.47;2.87;;;;;;;26.68;89.21;101181.03;5016571;28;20628;-76
2021/07/24 07:26:33;;;;;;;5.57;2.83;;;;;;;26.64;94.04;101191.34;5010807;28;20170;-76
2021/07/24 07:29:02;;;;;;;4.87;2.23;;;;;;;26.56;89.07;101194.19;5013945;28;20166;-74
2021/07/24 07:31:29;;;;;;;5.57;2.60;;;;;;;26.54;91.82;101186.31;5014487;28;20417;-74
2021/07/24 07:33:55;;;;;;;8.90;2.70;;;;;;;26.35;90.20;101194.19;5015574;28;20430;-79
2021/07/24 07:36:20;;;;;;;8.10;2.47;;;;;;;26.28;95.54;101189.59;5011070;28;20456;-73
2021/07/24 07:38:46;;;;;;;9.07;3.53;;;;;;;26.27;100.00;101193.31;5013920;28;20227;-74
2021/07/24 07:41:12;;;;;;;6.57;3.33;;;;;;;26.29;100.00;101193.94;5013764;28;20201;-73
2021/07/24 07:43:38;;;;;;;6.47;2.53;;;;;;;26.55;100.00;101189.84;5011254;28;20201;-74
2021/07/24 07:46:05;;;;;;;9.57;2.93;;;;;;;26.69;98.23;101194.31;5009643;28;20433;-73
2021/07/24 07:48:37;;;;;;;8.20;2.53;;;;;;;26.59;99.83;101199.19;5016151;28;20425;-74
2021/07/24 07:51:04;;;;;;;5.40;2.10;;;;;;;26.63;100.00;101197.78;5022458;28;20159;-78
2021/07/24 07:53:29;;;;;;;6.47;3.07;;;;;;;26.78;100.00;101198.50;5015709;28;20420;-74
2021/07/24 07:55:55;;;;;;;6.80;3.30;;;;;;;26.99;100.00;101199.47;5007764;28;20409;-74
2021/07/24 07:58:21;;;;;;;6.40;2.67;;;;;;;27.15;97.45;101198.34;5012744;28;20185;-76
2021/07/24 08:00:46;;;;;;;16.90;4.17;;;;;;;27.36;100.00;101196.34;5012402;28;20294;-73
2021/07/24 08:03:11;;;;;;;6.03;3.00;;;;;;;27.59;100.00;101195.19;5012649;28;20175;-80
2021/07/24 08:05:37;;;;;;;7.53;3.30;;;;;;;27.51;95.38;101198.91;5008634;28;20158;-77
2021/07/24 08:08:03;;;;;;;7.00;3.47;;;;;;;27.34;97.36;101195.69;5007752;28;20260;-75
2021/07/24 08:10:28;;;;;;;7.57;3.07;;;;;;;27.23;100.00;101201.69;4993881;28;20174;-78
2021/07/24 08:12:54;;;;;;;6.90;2.53;;;;;;;27.42;100.00;101193.88;5003917;28;20198;-80
2021/07/24 08:15:19;;;;;;;4.97;2.53;;;;;;;27.60;100.00;101194.97;5009985;28;20174;-75
2021/07/24 08:17:45;;;;;;;6.63;2.30;;;;;;;27.79;100.00;101192.56;5010407;28;20162;-75
2021/07/24 08:20:11;;;;;;;8.90;2.90;;;;;;;28.03;100.00;101181.16;5005326;28;20546;-73
2021/07/24 08:22:38;;;;;;;5.40;2.60;;;;;;;28.19;100.00;101185.34;5003836;28;20228;-77
2021/07/24 08:25:05;;;;;;;14.23;4.20;;;;;;;28.50;100.00;101194.75;5006422;28;20413;-75
2021/07/24 08:27:34;;;;;;;5.63;2.70;;;;;;;28.59;94.08;101194.31;5012221;28;20512;-73
2021/07/24 08:29:59;;;;;;;7.33;3.40;;;;;;;28.56;99.78;101188.47;5013091;28;20900;-73
2021/07/24 08:32:25;;;;;;;7.23;2.80;;;;;;;28.83;96.47;101187.38;5012806;28;20424;-75
2021/07/24 08:34:51;;;;;;;10.10;3.23;;;;;;;28.87;92.27;101185.06;5012395;28;20226;-72
2021/07/24 08:37:18;;;;;;;6.50;2.70;;;;;;;29.04;96.63;101190.91;5012958;28;20595;-75
2021/07/24 08:39:43;;;;;;;5.73;2.70;;;;;;;29.09;100.00;101186.50;5012429;28;20405;-74
2021/07/24 08:42:25;;;;;;;6.30;2.90;;;;;;;29.15;100.00;101188.34;5009975;28;20837;-75
2021/07/24 08:44:50;;;;;;;12.23;3.67;;;;;;;29.21;100.00;101190.22;4998567;28;20646;-78
2021/07/24 08:47:16;;;;;;;5.97;2.70;;;;;;;29.48;100.00;101177.41;5011442;28;20843;-72
2021/07/24 08:49:41;;;;;;;14.17;3.53;;;;;;;29.60;96.51;101190.28;5036153;28;20201;-73
2021/07/24 08:52:08;;;;;;;8.97;2.87;;;;;;;29.58;95.21;101179.66;5005439;28;20616;-71
2021/07/24 08:54:34;;;;;;;8.57;3.17;;;;;;;29.53;96.12;101191.13;5005233;28;20174;-72
2021/07/24 08:57:00;;;;;;;8.33;3.37;;;;;;;29.48;95.74;101182.81;5010901;28;20973;-72
2021/07/24 08:59:26;;;;;;;5.53;3.00;;;;;;;29.42;96.74;101186.38;5012251;28;20174;-72
2021/07/24 09:01:53;;;;;;;9.10;2.80;;;;;;;29.39;100.00;101184.09;5011108;28;21060;-78
2021/07/24 09:04:21;;;;;;;5.20;2.93;;;;;;;29.44;100.00;101184.28;5011836;28;20436;-72
2021/07/24 09:06:51;;;;;;;10.40;3.03;;;;;;;29.50;100.00;101183.44;5012008;28;20444;-73
2021/07/24 09:09:18;;;;;;;7.50;3.40;;;;;;;29.55;100.00;101189.06;5011595;28;20421;-74
2021/07/24 09:11:44;;;;;;;55.47;5.97;;;;;;;29.53;94.91;101180.31;5011838;28;20417;-74
2021/07/24 09:14:09;;;;;;;11.57;3.00;;;;;;;29.41;93.58;101181.19;5009806;28;20808;-75
2021/07/24 09:16:38;;;;;;;9.23;3.30;;;;;;;29.21;92.09;101187.50;4994195;28;20162;-73
2021/07/24 09:19:04;;;;;;;7.03;3.17;;;;;;;29.19;91.05;101184.19;5011275;28;20166;-75
2021/07/24 09:21:30;;;;;;;8.10;3.10;;;;;;;29.31;89.31;101173.50;5011624;28;20563;-76
2021/07/24 09:24:18;;;;;;;6.43;3.07;;;;;;;29.44;88.34;101173.44;5010661;28;20401;-74
2021/07/24 09:26:43;;;;;;;5.00;2.50;;;;;;;29.34;89.69;101173.09;5005360;28;20170;-73
2021/07/24 09:29:14;;;;;;;9.43;3.37;;;;;;;29.34;87.55;101172.25;5011140;28;20405;-75
2021/07/24 09:31:42;;;;;;;6.20;3.47;;;;;;;29.46;98.99;101173.22;5010828;28;20288;-74
2021/07/24 09:34:09;;;;;;;8.20;4.43;;;;;;;29.41;100.00;101182.00;5010552;28;20764;-74
2021/07/24 09:36:35;;;;;;;6.00;3.13;;;;;;;29.45;100.00;101176.97;5011141;28;20421;-73
2021/07/24 09:39:08;;;;;;;10.80;3.30;;;;;;;29.49;100.00;101179.06;5012090;28;20556;-73
2021/07/24 09:41:35;;;;;;;6.20;3.13;;;;;;;29.39;100.00;101184.09;5009822;28;20449;-76
2021/07/24 09:44:01;;;;;;;6.80;3.17;;;;;;;29.45;100.00;101177.81;5011531;28;20459;-76
2021/07/24 09:46:29;;;;;;;6.07;2.80;;;;;;;29.68;100.00;101190.00;5010967;28;20405;-76
2021/07/24 09:48:55;;;;;;;7.93;3.33;;;;;;;29.75;100.00;101182.69;5011228;28;20166;-75
2021/07/24 09:51:43;;;;;;;6.77;3.20;;;;;;;29.80;100.00;101189.13;5010752;28;20427;-75
2021/07/24 09:54:28;;;;;;;5.20;2.67;;;;;;;29.67;100.00;101191.91;5011474;28;21041;-74
2021/07/24 09:56:55;;;;;;;5.80;2.80;;;;;;;29.83;100.00;101187.84;5010336;28;20424;-75
2021/07/24 09:59:31;;;;;;;11.83;4.13;;;;;;;29.85;100.00;101183.03;5011242;28;20413;-73
2021/07/24 10:01:59;;;;;;;7.30;3.00;;;;;;;29.69;100.00;101194.38;5010690;28;20502;-75
2021/07/24 10:04:35;;;;;;;5.73;2.87;;;;;;;29.82;100.00;101189.72;5010950;28;20512;-77
2021/07/24 10:07:12;;;;;;;8.33;2.83;;;;;;;29.93;100.00;101188.22;5010926;28;20864;-75
2021/07/24 10:09:41;;;;;;;5.97;2.40;;;;;;;29.89;100.00;101188.84;5011370;28;20436;-75
2021/07/24 10:12:15;;;;;;;9.77;5.20;;;;;;;30.03;100.00;101187.72;5010710;28;20409;-75
2021/07/24 10:14:41;;;;;;;5.70;3.30;;;;;;;29.99;100.00;101181.88;5010300;28;20981;-73
2021/07/24 10:17:07;;;;;;;9.57;3.43;;;;;;;30.31;100.00;101171.03;5008357;28;20421;-74
2021/07/24 10:19:32;;;;;;;6.37;3.07;;;;;;;30.55;100.00;101180.22;5008620;28;20405;-74
2021/07/24 10:22:00;;;;;;;6.23;3.77;;;;;;;30.72;100.00;101183.19;5008898;28;20276;-75
2021/07/24 10:24:27;;;;;;;19.73;3.40;;;;;;;30.87;100.00;101186.38;5008793;28;20306;-75
2021/07/24 10:27:05;;;;;;;9.23;3.93;;;;;;;31.30;100.00;101182.78;5010382;28;20409;-76
2021/07/24 10:29:48;;;;;;;6.57;4.17;;;;;;;31.40;100.00;101177.63;5009930;28;20390;-74
2021/07/24 10:32:16;;;;;;;6.40;4.10;;;;;;;31.52;100.00;101177.69;5010846;28;20468;-76
2021/07/24 10:34:50;;;;;;;7.23;3.30;;;;;;;31.32;100.00;101178.75;5010114;28;20469;-78
2021/07/24 10:37:35;;;;;;;5.60;3.70;;;;;;;30.95;100.00;101175.22;5010377;28;20456;-76
2021/07/24 10:40:16;;;;;;;6.73;3.40;;;;;;;30.96;100.00;101168.72;5016648;28;20946;-75
2021/07/24 10:42:44;;;;;;;10.17;3.73;;;;;;;30.75;100.00;101172.72;5007100;28;20863;-73
2021/07/24 10:45:32;;;;;;;8.70;3.33;;;;;;;30.81;100.00;101181.84;5010196;28;20770;-75
2021/07/24 10:48:16;;;;;;;5.53;3.60;;;;;;;31.07;100.00;101173.41;5009828;28;20443;-73
2021/07/24 10:51:07;;;;;;;9.77;3.30;;;;;;;30.59;100.00;101179.53;5009285;28;20939;-76
2021/07/24 10:54:01;;;;;;;9.83;2.90;;;;;;;30.53;100.00;101183.16;5002927;28;20785;-73
2021/07/24 10:56:37;;;;;;;6.70;3.60;;;;;;;30.60;100.00;101170.31;5010194;28;20899;-72
2021/07/24 10:59:27;;;;;;;17.83;4.80;;;;;;;30.39;100.00;101174.31;5010223;28;20416;-78
2021/07/24 11:02:00;;;;;;;8.07;3.50;;;;;;;30.38;100.00;101171.81;5009661;28;20974;-74
2021/07/24 11:04:35;;;;;;;6.87;3.37;;;;;;;30.36;100.00;101166.59;5010252;28;20801;-74
2021/07/24 11:07:13;;;;;;;6.43;3.37;;;;;;;30.44;100.00;101170.91;5009791;28;20407;-73
2021/07/24 11:10:05;;;;;;;5.93;3.33;;;;;;;30.48;100.00;101169.41;5009973;28;20440;-74
2021/07/24 11:12:40;;;;;;;12.93;3.97;;;;;;;30.49;100.00;101171.06;4989683;28;20429;-75
2021/07/24 11:15:11;;;;;;;5.50;3.30;;;;;;;30.45;100.00;101167.13;5010079;28;20412;-74
2021/07/24 11:17:37;;;;;;;7.10;3.30;;;;;;;30.51;100.00;101163.53;5010376;28;20509;-73
2021/07/24 11:20:08;;;;;;;6.83;3.27;;;;;;;30.46;100.00;101166.09;5010456;28;20971;-73